sensor_id;sensor_type;location;lat;lon;timestamp;pressure;altitude;pressure_sealevel;temperature;humidity
75551;BME280;65071;53.082;18.218;2023-04-06T00:01:41;102032.03;;;0.20;63.80
75551;BME280;65071;53.082;18.218;2023-04-06T00:04:06;102032.84;;;0.26;64.00
75551;BME280;65071;53.082;18.218;2023-04-06T00:06:33;102029.50;;;0.35;64.01
75551;BME280;65071;53.082;18.218;2023-04-06T00:08:59;102028.26;;;0.40;64.41
75551;BME280;65071;53.082;18.218;2023-04-06T00:11:26;102025.67;;;0.43;64.44
75551;BME280;65071;53.082;18.218;2023-04-06T00:13:53;102025.94;;;0.45;64.98
75551;BME280;65071;53.082;18.218;2023-04-06T00:16:19;102025.07;;;0.44;64.94
75551;BME280;65071;53.082;18.218;2023-04-06T00:18:45;102026.14;;;0.45;64.91
75551;BME280;65071;53.082;18.218;2023-04-06T00:21:13;102030.92;;;0.44;65.28
75551;BME280;65071;53.082;18.218;2023-04-06T00:23:40;102024.27;;;0.43;66.14
75551;BME280;65071;53.082;18.218;2023-04-06T00:26:07;102031.03;;;0.41;65.71
75551;BME280;65071;53.082;18.218;2023-04-06T00:28:33;102028.77;;;0.40;65.56
75551;BME280;65071;53.082;18.218;2023-04-06T00:30:59;102032.09;;;0.42;65.55
75551;BME280;65071;53.082;18.218;2023-04-06T00:33:25;102032.95;;;0.42;65.22
75551;BME280;65071;53.082;18.218;2023-04-06T00:35:51;102030.77;;;0.43;65.96
75551;BME280;65071;53.082;18.218;2023-04-06T00:38:17;102029.46;;;0.41;67.39
75551;BME280;65071;53.082;18.218;2023-04-06T00:40:43;102029.42;;;0.37;67.14
75551;BME280;65071;53.082;18.218;2023-04-06T00:43:12;102026.72;;;0.34;66.47
75551;BME280;65071;53.082;18.218;2023-04-06T00:45:42;102027.15;;;0.32;66.44
75551;BME280;65071;53.082;18.218;2023-04-06T00:48:08;102026.48;;;0.31;66.17
75551;BME280;65071;53.082;18.218;2023-04-06T00:50:34;102025.34;;;0.29;66.73
75551;BME280;65071;53.082;18.218;2023-04-06T00:53:01;102026.72;;;0.25;66.81
75551;BME280;65071;53.082;18.218;2023-04-06T00:55:27;102023.48;;;0.22;66.72
75551;BME280;65071;53.082;18.218;2023-04-06T00:57:54;102021.95;;;0.20;66.30
75551;BME280;65071;53.082;18.218;2023-04-06T01:00:20;102021.69;;;0.17;66.50
75551;BME280;65071;53.082;18.218;2023-04-06T01:02:48;102025.04;;;0.13;66.77
75551;BME280;65071;53.082;18.218;2023-04-06T01:05:16;102020.06;;;0.08;67.03
75551;BME280;65071;53.082;18.218;2023-04-06T01:07:51;102021.55;;;0.07;66.05
75551;BME280;65071;53.082;18.218;2023-04-06T01:10:24;102021.73;;;0.06;66.12
75551;BME280;65071;53.082;18.218;2023-04-06T01:12:50;102023.36;;;0.05;65.77
75551;BME280;65071;53.082;18.218;2023-04-06T01:15:21;102021.58;;;0.06;65.23
75551;BME280;65071;53.082;18.218;2023-04-06T01:17:48;102016.25;;;0.07;65.44
75551;BME280;65071;53.082;18.218;2023-04-06T01:20:15;102017.14;;;0.07;65.41
75551;BME280;65071;53.082;18.218;2023-04-06T01:22:42;102017.39;;;0.04;65.85
75551;BME280;65071;53.082;18.218;2023-04-06T01:25:08;102016.48;;;0.00;65.79
75551;BME280;65071;53.082;18.218;2023-04-06T01:27:57;102015.79;;;-0.05;66.02
75551;BME280;65071;53.082;18.218;2023-04-06T01:30:34;102018.39;;;-0.09;66.46
75551;BME280;65071;53.082;18.218;2023-04-06T01:33:06;102016.26;;;-0.13;66.22
75551;BME280;65071;53.082;18.218;2023-04-06T01:35:48;102012.66;;;-0.17;66.15
75551;BME280;65071;53.082;18.218;2023-04-06T01:38:18;102013.27;;;-0.19;66.20
75551;BME280;65071;53.082;18.218;2023-04-06T01:40:44;102009.63;;;-0.21;66.33
75551;BME280;65071;53.082;18.218;2023-04-06T01:43:10;102015.73;;;-0.23;66.93
75551;BME280;65071;53.082;18.218;2023-04-06T01:45:46;102018.09;;;-0.25;67.10
75551;BME280;65071;53.082;18.218;2023-04-06T01:48:16;102014.46;;;-0.28;67.08
75551;BME280;65071;53.082;18.218;2023-04-06T01:50:42;102012.98;;;-0.30;67.31
75551;BME280;65071;53.082;18.218;2023-04-06T01:53:08;102014.30;;;-0.33;67.24
75551;BME280;65071;53.082;18.218;2023-04-06T01:55:35;102012.27;;;-0.36;67.69
75551;BME280;65071;53.082;18.218;2023-04-06T01:58:15;102011.85;;;-0.39;67.74
75551;BME280;65071;53.082;18.218;2023-04-06T02:00:41;102013.58;;;-0.42;67.20
75551;BME280;65071;53.082;18.218;2023-04-06T02:03:08;102016.34;;;-0.45;67.84
75551;BME280;65071;53.082;18.218;2023-04-06T02:05:34;102015.77;;;-0.50;68.13
75551;BME280;65071;53.082;18.218;2023-04-06T02:08:23;102019.39;;;-0.52;67.58
75551;BME280;65071;53.082;18.218;2023-04-06T02:10:49;102016.40;;;-0.52;67.12
75551;BME280;65071;53.082;18.218;2023-04-06T02:13:23;102014.38;;;-0.50;66.98
75551;BME280;65071;53.082;18.218;2023-04-06T02:15:50;102014.64;;;-0.48;67.05
75551;BME280;65071;53.082;18.218;2023-04-06T02:18:16;102015.63;;;-0.45;67.38
75551;BME280;65071;53.082;18.218;2023-04-06T02:20:43;102015.58;;;-0.44;67.48
75551;BME280;65071;53.082;18.218;2023-04-06T02:23:10;102012.59;;;-0.45;68.12
75551;BME280;65071;53.082;18.218;2023-04-06T02:25:36;102012.73;;;-0.44;67.49
75551;BME280;65071;53.082;18.218;2023-04-06T02:28:03;102013.41;;;-0.43;67.27
75551;BME280;65071;53.082;18.218;2023-04-06T02:30:29;102011.43;;;-0.42;67.41
75551;BME280;65071;53.082;18.218;2023-04-06T02:32:55;102010.20;;;-0.42;67.60
75551;BME280;65071;53.082;18.218;2023-04-06T02:35:22;102012.95;;;-0.40;67.66
75551;BME280;65071;53.082;18.218;2023-04-06T02:37:51;102012.98;;;-0.40;68.12
75551;BME280;65071;53.082;18.218;2023-04-06T02:40:17;102012.05;;;-0.40;67.98
75551;BME280;65071;53.082;18.218;2023-04-06T02:42:44;102020.00;;;-0.39;67.83
75551;BME280;65071;53.082;18.218;2023-04-06T02:45:11;102019.45;;;-0.39;67.93
75551;BME280;65071;53.082;18.218;2023-04-06T02:47:40;102018.88;;;-0.38;68.30
75551;BME280;65071;53.082;18.218;2023-04-06T02:50:06;102019.88;;;-0.36;68.04
75551;BME280;65071;53.082;18.218;2023-04-06T02:52:33;102019.45;;;-0.34;68.55
75551;BME280;65071;53.082;18.218;2023-04-06T02:54:59;102022.42;;;-0.33;68.59
75551;BME280;65071;53.082;18.218;2023-04-06T02:57:27;102024.71;;;-0.32;68.93
75551;BME280;65071;53.082;18.218;2023-04-06T02:59:53;102025.94;;;-0.32;68.78
75551;BME280;65071;53.082;18.218;2023-04-06T03:02:24;102027.73;;;-0.33;69.62
75551;BME280;65071;53.082;18.218;2023-04-06T03:04:50;102025.42;;;-0.33;69.89
75551;BME280;65071;53.082;18.218;2023-04-06T03:07:21;102023.05;;;-0.30;68.96
75551;BME280;65071;53.082;18.218;2023-04-06T03:09:47;102022.70;;;-0.26;68.57
75551;BME280;65071;53.082;18.218;2023-04-06T03:12:13;102024.49;;;-0.21;68.66
75551;BME280;65071;53.082;18.218;2023-04-06T03:14:59;102025.86;;;-0.16;69.08
75551;BME280;65071;53.082;18.218;2023-04-06T03:17:25;102028.05;;;-0.12;68.98
75551;BME280;65071;53.082;18.218;2023-04-06T03:19:52;102028.64;;;-0.14;69.69
75551;BME280;65071;53.082;18.218;2023-04-06T03:22:19;102030.23;;;-0.14;68.73
75551;BME280;65071;53.082;18.218;2023-04-06T03:24:46;102027.54;;;-0.13;68.69
75551;BME280;65071;53.082;18.218;2023-04-06T03:27:12;102025.02;;;-0.12;68.77
75551;BME280;65071;53.082;18.218;2023-04-06T03:29:39;102021.61;;;-0.10;69.21
75551;BME280;65071;53.082;18.218;2023-04-06T03:32:05;102023.34;;;-0.09;69.31
75551;BME280;65071;53.082;18.218;2023-04-06T03:34:36;102020.00;;;-0.09;69.22
75551;BME280;65071;53.082;18.218;2023-04-06T03:37:01;102020.41;;;-0.11;69.25
75551;BME280;65071;53.082;18.218;2023-04-06T03:39:28;102026.27;;;-0.12;69.16
75551;BME280;65071;53.082;18.218;2023-04-06T03:41:54;102022.77;;;-0.13;68.56
75551;BME280;65071;53.082;18.218;2023-04-06T03:44:33;102022.38;;;-0.12;68.77
75551;BME280;65071;53.082;18.218;2023-04-06T03:46:59;102023.26;;;-0.12;68.52
75551;BME280;65071;53.082;18.218;2023-04-06T03:49:25;102028.14;;;-0.10;69.09
75551;BME280;65071;53.082;18.218;2023-04-06T03:51:52;102032.02;;;-0.09;69.06
75551;BME280;65071;53.082;18.218;2023-04-06T03:54:18;102031.85;;;-0.10;68.71
75551;BME280;65071;53.082;18.218;2023-04-06T03:56:44;102033.34;;;-0.12;68.83
75551;BME280;65071;53.082;18.218;2023-04-06T03:59:10;102034.22;;;-0.12;68.59
75551;BME280;65071;53.082;18.218;2023-04-06T04:01:36;102038.40;;;-0.09;68.34
75551;BME280;65071;53.082;18.218;2023-04-06T04:04:02;102035.81;;;-0.07;68.16
75551;BME280;65071;53.082;18.218;2023-04-06T04:06:30;102038.46;;;-0.02;67.80
75551;BME280;65071;53.082;18.218;2023-04-06T04:08:56;102038.05;;;0.05;67.91
75551;BME280;65071;53.082;18.218;2023-04-06T04:11:22;102037.45;;;0.07;68.49
75551;BME280;65071;53.082;18.218;2023-04-06T04:13:53;102042.05;;;0.07;68.49
75551;BME280;65071;53.082;18.218;2023-04-06T04:16:19;102045.23;;;0.07;69.35
75551;BME280;65071;53.082;18.218;2023-04-06T04:18:45;102050.20;;;0.02;70.20
75551;BME280;65071;53.082;18.218;2023-04-06T04:21:12;102046.46;;;-0.03;69.79
75551;BME280;65071;53.082;18.218;2023-04-06T04:23:38;102048.99;;;-0.04;69.64
75551;BME280;65071;53.082;18.218;2023-04-06T04:26:04;102048.27;;;-0.04;69.61
75551;BME280;65071;53.082;18.218;2023-04-06T04:28:32;102047.30;;;-0.02;69.68
75551;BME280;65071;53.082;18.218;2023-04-06T04:30:58;102043.36;;;-0.00;69.76
75551;BME280;65071;53.082;18.218;2023-04-06T04:33:24;102043.61;;;0.03;69.61
75551;BME280;65071;53.082;18.218;2023-04-06T04:35:50;102047.04;;;0.07;69.28
75551;BME280;65071;53.082;18.218;2023-04-06T04:38:18;102046.75;;;0.09;69.55
75551;BME280;65071;53.082;18.218;2023-04-06T04:40:45;102048.59;;;0.12;69.84
75551;BME280;65071;53.082;18.218;2023-04-06T04:43:11;102045.70;;;0.13;70.11
75551;BME280;65071;53.082;18.218;2023-04-06T04:45:38;102047.75;;;0.15;69.89
75551;BME280;65071;53.082;18.218;2023-04-06T04:48:24;102049.91;;;0.19;70.36
75551;BME280;65071;53.082;18.218;2023-04-06T04:50:54;102047.30;;;0.23;70.02
75551;BME280;65071;53.082;18.218;2023-04-06T04:53:22;102047.40;;;0.30;69.80
75551;BME280;65071;53.082;18.218;2023-04-06T04:55:48;102049.66;;;0.35;70.22
75551;BME280;65071;53.082;18.218;2023-04-06T04:58:14;102052.95;;;0.42;69.31
75551;BME280;65071;53.082;18.218;2023-04-06T05:00:49;102056.12;;;0.47;69.73
75551;BME280;65071;53.082;18.218;2023-04-06T05:03:22;102053.71;;;0.50;69.61
75551;BME280;65071;53.082;18.218;2023-04-06T05:05:55;102056.41;;;0.54;69.61
75551;BME280;65071;53.082;18.218;2023-04-06T05:08:23;102052.60;;;0.60;69.53
75551;BME280;65071;53.082;18.218;2023-04-06T05:10:49;102053.42;;;0.66;70.18
75551;BME280;65071;53.082;18.218;2023-04-06T05:13:16;102059.83;;;0.70;70.23
75551;BME280;65071;53.082;18.218;2023-04-06T05:15:43;102056.27;;;0.71;71.11
75551;BME280;65071;53.082;18.218;2023-04-06T05:18:18;102057.55;;;0.74;70.38
75551;BME280;65071;53.082;18.218;2023-04-06T05:20:44;102059.13;;;0.75;71.11
75551;BME280;65071;53.082;18.218;2023-04-06T05:23:10;102059.34;;;0.74;71.18
75551;BME280;65071;53.082;18.218;2023-04-06T05:25:37;102063.87;;;0.76;71.15
75551;BME280;65071;53.082;18.218;2023-04-06T05:28:11;102065.80;;;0.81;70.41
75551;BME280;65071;53.082;18.218;2023-04-06T05:30:39;102064.41;;;0.89;70.09
75551;BME280;65071;53.082;18.218;2023-04-06T05:33:07;102063.22;;;0.97;70.74
75551;BME280;65071;53.082;18.218;2023-04-06T05:35:44;102063.30;;;1.04;70.94
75551;BME280;65071;53.082;18.218;2023-04-06T05:38:12;102059.46;;;1.15;69.74
75551;BME280;65071;53.082;18.218;2023-04-06T05:40:38;102055.92;;;1.24;69.86
75551;BME280;65071;53.082;18.218;2023-04-06T05:43:08;102059.82;;;1.33;70.02
75551;BME280;65071;53.082;18.218;2023-04-06T05:45:36;102061.05;;;1.37;70.05
75551;BME280;65071;53.082;18.218;2023-04-06T05:48:04;102057.52;;;1.41;70.16
75551;BME280;65071;53.082;18.218;2023-04-06T05:50:30;102054.76;;;1.48;69.89
75551;BME280;65071;53.082;18.218;2023-04-06T05:52:56;102058.09;;;1.53;70.31
75551;BME280;65071;53.082;18.218;2023-04-06T05:55:24;102055.35;;;1.59;69.91
75551;BME280;65071;53.082;18.218;2023-04-06T05:57:55;102055.84;;;1.65;70.19
75551;BME280;65071;53.082;18.218;2023-04-06T06:00:21;102058.24;;;1.66;70.68
75551;BME280;65071;53.082;18.218;2023-04-06T06:02:52;102053.32;;;1.70;70.83
75551;BME280;65071;53.082;18.218;2023-04-06T06:05:19;102056.13;;;1.74;70.55
75551;BME280;65071;53.082;18.218;2023-04-06T06:07:46;102059.72;;;1.81;70.61
75551;BME280;65071;53.082;18.218;2023-04-06T06:10:11;102059.22;;;1.89;70.08
75551;BME280;65071;53.082;18.218;2023-04-06T06:12:38;102056.58;;;1.96;70.67
75551;BME280;65071;53.082;18.218;2023-04-06T06:15:05;102055.10;;;2.06;70.03
75551;BME280;65071;53.082;18.218;2023-04-06T06:17:33;102055.56;;;2.15;70.00
75551;BME280;65071;53.082;18.218;2023-04-06T06:19:59;102056.71;;;2.25;69.67
75551;BME280;65071;53.082;18.218;2023-04-06T06:22:26;102058.27;;;2.38;69.85
75551;BME280;65071;53.082;18.218;2023-04-06T06:24:52;102051.95;;;2.51;69.56
75551;BME280;65071;53.082;18.218;2023-04-06T06:27:19;102054.08;;;2.63;68.87
75551;BME280;65071;53.082;18.218;2023-04-06T06:29:44;102057.29;;;2.74;69.10
75551;BME280;65071;53.082;18.218;2023-04-06T06:32:10;102055.66;;;2.85;68.62
75551;BME280;65071;53.082;18.218;2023-04-06T06:34:37;102055.01;;;2.96;68.52
75551;BME280;65071;53.082;18.218;2023-04-06T06:37:04;102054.20;;;3.05;68.47
75551;BME280;65071;53.082;18.218;2023-04-06T06:39:30;102052.80;;;3.16;68.69
75551;BME280;65071;53.082;18.218;2023-04-06T06:41:56;102057.45;;;3.26;67.97
75551;BME280;65071;53.082;18.218;2023-04-06T06:44:39;102054.77;;;3.37;67.75
75551;BME280;65071;53.082;18.218;2023-04-06T06:47:05;102052.88;;;3.46;66.92
75551;BME280;65071;53.082;18.218;2023-04-06T06:49:31;102050.64;;;3.59;66.72
75551;BME280;65071;53.082;18.218;2023-04-06T06:51:57;102050.91;;;3.71;66.78
75551;BME280;65071;53.082;18.218;2023-04-06T06:54:23;102052.02;;;3.84;66.56
75551;BME280;65071;53.082;18.218;2023-04-06T06:56:49;102048.63;;;3.98;66.44
75551;BME280;65071;53.082;18.218;2023-04-06T06:59:16;102052.92;;;4.14;66.43
75551;BME280;65071;53.082;18.218;2023-04-06T07:01:42;102049.44;;;4.33;65.83
75551;BME280;65071;53.082;18.218;2023-04-06T07:04:08;102046.60;;;4.52;64.77
75551;BME280;65071;53.082;18.218;2023-04-06T07:06:35;102046.65;;;4.71;64.68
75551;BME280;65071;53.082;18.218;2023-04-06T07:09:02;102041.59;;;4.88;63.23
75551;BME280;65071;53.082;18.218;2023-04-06T07:11:31;102038.09;;;5.05;61.44
75551;BME280;65071;53.082;18.218;2023-04-06T07:13:57;102033.59;;;5.22;60.11
75551;BME280;65071;53.082;18.218;2023-04-06T07:16:23;102033.38;;;5.32;58.13
75551;BME280;65071;53.082;18.218;2023-04-06T07:18:50;102035.29;;;5.47;59.52
75551;BME280;65071;53.082;18.218;2023-04-06T07:21:16;102038.91;;;5.59;58.22
75551;BME280;65071;53.082;18.218;2023-04-06T07:23:42;102038.91;;;5.71;57.39
75551;BME280;65071;53.082;18.218;2023-04-06T07:26:08;102041.65;;;5.81;56.50
75551;BME280;65071;53.082;18.218;2023-04-06T07:28:34;102035.48;;;5.96;57.17
75551;BME280;65071;53.082;18.218;2023-04-06T07:31:00;102032.96;;;6.05;56.62
75551;BME280;65071;53.082;18.218;2023-04-06T07:33:27;102035.50;;;6.16;57.05
75551;BME280;65071;53.082;18.218;2023-04-06T07:35:55;102035.89;;;6.26;55.41
75551;BME280;65071;53.082;18.218;2023-04-06T07:38:22;102032.07;;;6.36;55.22
75551;BME280;65071;53.082;18.218;2023-04-06T07:40:50;102031.61;;;6.49;53.45
75551;BME280;65071;53.082;18.218;2023-04-06T07:43:16;102022.00;;;6.65;50.89
75551;BME280;65071;53.082;18.218;2023-04-06T07:45:42;102026.17;;;6.81;52.80
75551;BME280;65071;53.082;18.218;2023-04-06T07:48:08;102026.28;;;6.96;54.30
75551;BME280;65071;53.082;18.218;2023-04-06T07:50:34;102019.08;;;6.99;47.58
75551;BME280;65071;53.082;18.218;2023-04-06T07:53:01;102018.60;;;7.07;48.98
75551;BME280;65071;53.082;18.218;2023-04-06T07:55:28;102013.41;;;7.15;46.82
75551;BME280;65071;53.082;18.218;2023-04-06T07:57:54;102013.42;;;7.33;49.41
75551;BME280;65071;53.082;18.218;2023-04-06T08:00:20;102022.38;;;7.31;44.13
75551;BME280;65071;53.082;18.218;2023-04-06T08:02:46;102013.95;;;7.26;45.55
75551;BME280;65071;53.082;18.218;2023-04-06T08:05:12;102017.09;;;7.21;46.03
75551;BME280;65071;53.082;18.218;2023-04-06T08:07:38;102022.27;;;7.00;43.15
75551;BME280;65071;53.082;18.218;2023-04-06T08:10:04;102019.55;;;6.92;42.58
75551;BME280;65071;53.082;18.218;2023-04-06T08:12:32;102023.46;;;6.84;44.21
75551;BME280;65071;53.082;18.218;2023-04-06T08:14:58;102025.29;;;6.67;43.27
75551;BME280;65071;53.082;18.218;2023-04-06T08:17:25;102024.38;;;6.70;43.70
75551;BME280;65071;53.082;18.218;2023-04-06T08:19:51;102025.91;;;6.71;44.76
75551;BME280;65071;53.082;18.218;2023-04-06T08:22:17;102025.48;;;6.64;42.88
75551;BME280;65071;53.082;18.218;2023-04-06T08:24:43;102024.46;;;6.58;42.90
75551;BME280;65071;53.082;18.218;2023-04-06T08:27:09;102031.60;;;6.58;43.29
75551;BME280;65071;53.082;18.218;2023-04-06T08:29:35;102028.79;;;6.51;42.04
75551;BME280;65071;53.082;18.218;2023-04-06T08:32:00;102028.45;;;6.51;42.12
75551;BME280;65071;53.082;18.218;2023-04-06T08:34:32;102027.39;;;6.48;42.16
75551;BME280;65071;53.082;18.218;2023-04-06T08:36:58;102027.80;;;6.36;41.79
75551;BME280;65071;53.082;18.218;2023-04-06T08:39:24;102029.63;;;6.38;42.60
75551;BME280;65071;53.082;18.218;2023-04-06T08:41:52;102030.90;;;6.35;42.43
75551;BME280;65071;53.082;18.218;2023-04-06T08:44:18;102026.41;;;6.41;42.34
75551;BME280;65071;53.082;18.218;2023-04-06T08:46:45;102026.31;;;6.54;42.28
75551;BME280;65071;53.082;18.218;2023-04-06T08:49:12;102025.16;;;6.66;42.78
75551;BME280;65071;53.082;18.218;2023-04-06T08:51:41;102025.51;;;6.69;42.70
75551;BME280;65071;53.082;18.218;2023-04-06T08:54:07;102023.21;;;6.72;43.03
75551;BME280;65071;53.082;18.218;2023-04-06T08:56:37;102023.27;;;6.71;43.17
75551;BME280;65071;53.082;18.218;2023-04-06T08:59:04;102024.51;;;6.82;43.12
75551;BME280;65071;53.082;18.218;2023-04-06T09:01:33;102026.39;;;6.72;43.00
75551;BME280;65071;53.082;18.218;2023-04-06T09:04:00;102022.27;;;6.75;43.52
75551;BME280;65071;53.082;18.218;2023-04-06T09:06:27;102021.23;;;6.85;43.65
75551;BME280;65071;53.082;18.218;2023-04-06T09:08:53;102022.35;;;6.87;43.11
75551;BME280;65071;53.082;18.218;2023-04-06T09:11:19;102018.38;;;6.96;43.52
75551;BME280;65071;53.082;18.218;2023-04-06T09:13:47;102016.86;;;6.95;42.84
75551;BME280;65071;53.082;18.218;2023-04-06T09:16:14;102014.40;;;7.08;43.29
75551;BME280;65071;53.082;18.218;2023-04-06T09:18:41;102013.46;;;7.19;43.64
75551;BME280;65071;53.082;18.218;2023-04-06T09:21:07;102010.37;;;7.33;42.73
75551;BME280;65071;53.082;18.218;2023-04-06T09:23:34;102005.52;;;7.71;43.10
75551;BME280;65071;53.082;18.218;2023-04-06T09:28:50;102008.71;;;7.99;42.20
75551;BME280;65071;53.082;18.218;2023-04-06T09:31:21;102008.55;;;8.12;42.29
75551;BME280;65071;53.082;18.218;2023-04-06T09:33:47;102015.39;;;8.14;42.39
75551;BME280;65071;53.082;18.218;2023-04-06T09:36:14;102013.79;;;8.04;41.43
75551;BME280;65071;53.082;18.218;2023-04-06T09:38:54;102009.79;;;8.05;41.55
75551;BME280;65071;53.082;18.218;2023-04-06T09:43:50;102004.63;;;7.99;42.03
75551;BME280;65071;53.082;18.218;2023-04-06T09:46:17;102006.79;;;7.91;41.46
75551;BME280;65071;53.082;18.218;2023-04-06T09:48:43;102007.64;;;7.92;41.34
75551;BME280;65071;53.082;18.218;2023-04-06T09:51:13;102009.59;;;7.95;41.40
75551;BME280;65071;53.082;18.218;2023-04-06T09:53:41;102010.39;;;7.93;41.85
75551;BME280;65071;53.082;18.218;2023-04-06T09:56:12;102009.50;;;7.78;41.16
75551;BME280;65071;53.082;18.218;2023-04-06T09:58:43;102005.50;;;7.73;41.80
75551;BME280;65071;53.082;18.218;2023-04-06T10:01:15;101999.29;;;7.91;41.47
75551;BME280;65071;53.082;18.218;2023-04-06T10:06:33;102001.81;;;8.11;41.10
75551;BME280;65071;53.082;18.218;2023-04-06T10:09:02;101996.99;;;8.21;41.23
75551;BME280;65071;53.082;18.218;2023-04-06T10:11:30;101991.61;;;8.26;41.33
75551;BME280;65071;53.082;18.218;2023-04-06T10:13:56;101993.77;;;8.29;40.96
75551;BME280;65071;53.082;18.218;2023-04-06T10:16:23;101994.13;;;8.23;40.52
75551;BME280;65071;53.082;18.218;2023-04-06T10:18:58;101989.27;;;8.19;40.80
75551;BME280;65071;53.082;18.218;2023-04-06T10:21:27;101985.16;;;8.16;40.90
75551;BME280;65071;53.082;18.218;2023-04-06T10:23:59;101990.29;;;8.07;40.39
75551;BME280;65071;53.082;18.218;2023-04-06T10:26:25;101984.94;;;7.99;40.45
75551;BME280;65071;53.082;18.218;2023-04-06T10:28:52;101985.21;;;7.95;40.20
75551;BME280;65071;53.082;18.218;2023-04-06T10:31:25;101983.25;;;7.87;40.27
75551;BME280;65071;53.082;18.218;2023-04-06T10:33:57;101976.73;;;7.91;40.88
75551;BME280;65071;53.082;18.218;2023-04-06T10:36:25;101975.59;;;7.94;40.26
75551;BME280;65071;53.082;18.218;2023-04-06T10:39:00;101972.19;;;7.99;41.24
75551;BME280;65071;53.082;18.218;2023-04-06T10:44:00;101962.03;;;8.11;39.77
75551;BME280;65071;53.082;18.218;2023-04-06T10:46:29;101957.83;;;8.25;40.40
75551;BME280;65071;53.082;18.218;2023-04-06T10:48:55;101948.20;;;8.44;40.66
75551;BME280;65071;53.082;18.218;2023-04-06T10:51:26;101957.98;;;8.62;40.13
75551;BME280;65071;53.082;18.218;2023-04-06T10:53:53;101947.92;;;8.72;40.48
75551;BME280;65071;53.082;18.218;2023-04-06T10:56:23;101946.59;;;8.76;40.37
75551;BME280;65071;53.082;18.218;2023-04-06T10:58:54;101943.23;;;8.68;40.23
75551;BME280;65071;53.082;18.218;2023-04-06T11:01:24;101945.83;;;8.57;39.64
75551;BME280;65071;53.082;18.218;2023-04-06T11:03:54;101942.60;;;8.52;39.90
75551;BME280;65071;53.082;18.218;2023-04-06T11:06:22;101939.57;;;8.44;40.45
75551;BME280;65071;53.082;18.218;2023-04-06T11:08:49;101938.70;;;8.44;40.36
75551;BME280;65071;53.082;18.218;2023-04-06T11:11:18;101933.86;;;8.44;40.50
75551;BME280;65071;53.082;18.218;2023-04-06T11:13:46;101932.65;;;8.48;40.13
75551;BME280;65071;53.082;18.218;2023-04-06T11:16:17;101924.83;;;8.54;39.88
75551;BME280;65071;53.082;18.218;2023-04-06T11:18:57;101927.56;;;8.42;40.01
75551;BME280;65071;53.082;18.218;2023-04-06T11:21:40;101920.71;;;8.47;40.49
75551;BME280;65071;53.082;18.218;2023-04-06T11:24:11;101915.88;;;8.59;40.68
75551;BME280;65071;53.082;18.218;2023-04-06T11:26:39;101908.66;;;8.58;40.04
75551;BME280;65071;53.082;18.218;2023-04-06T11:29:05;101909.69;;;8.31;40.63
75551;BME280;65071;53.082;18.218;2023-04-06T11:31:37;101905.49;;;8.35;41.09
75551;BME280;65071;53.082;18.218;2023-04-06T11:34:09;101903.38;;;8.47;41.07
75551;BME280;65071;53.082;18.218;2023-04-06T11:36:35;101903.67;;;8.47;40.87
75551;BME280;65071;53.082;18.218;2023-04-06T11:39:03;101897.88;;;8.50;41.05
75551;BME280;65071;53.082;18.218;2023-04-06T11:41:29;101906.16;;;8.52;40.71
75551;BME280;65071;53.082;18.218;2023-04-06T11:43:55;101898.40;;;8.55;40.61
75551;BME280;65071;53.082;18.218;2023-04-06T11:46:22;101898.29;;;8.57;40.27
75551;BME280;65071;53.082;18.218;2023-04-06T11:48:48;101892.95;;;8.61;40.60
75551;BME280;65071;53.082;18.218;2023-04-06T11:51:21;101888.25;;;8.67;40.23
75551;BME280;65071;53.082;18.218;2023-04-06T11:53:48;101888.16;;;8.72;39.61
75551;BME280;65071;53.082;18.218;2023-04-06T11:56:25;101888.23;;;8.64;39.53
75551;BME280;65071;53.082;18.218;2023-04-06T11:58:51;101884.65;;;8.69;39.77
75551;BME280;65071;53.082;18.218;2023-04-06T12:01:17;101885.88;;;8.70;40.18
75551;BME280;65071;53.082;18.218;2023-04-06T12:03:43;101880.36;;;8.64;40.55
75551;BME280;65071;53.082;18.218;2023-04-06T12:06:09;101874.95;;;8.70;40.61
75551;BME280;65071;53.082;18.218;2023-04-06T12:08:35;101871.13;;;8.75;40.57
75551;BME280;65071;53.082;18.218;2023-04-06T12:11:01;101869.28;;;8.78;39.98
75551;BME280;65071;53.082;18.218;2023-04-06T12:13:28;101870.10;;;8.72;40.06
75551;BME280;65071;53.082;18.218;2023-04-06T12:15:54;101867.24;;;8.67;39.71
75551;BME280;65071;53.082;18.218;2023-04-06T12:18:20;101859.33;;;8.63;39.81
75551;BME280;65071;53.082;18.218;2023-04-06T12:20:45;101856.92;;;8.66;40.72
75551;BME280;65071;53.082;18.218;2023-04-06T12:23:11;101860.67;;;8.68;40.24
75551;BME280;65071;53.082;18.218;2023-04-06T12:25:39;101855.94;;;8.62;40.09
75551;BME280;65071;53.082;18.218;2023-04-06T12:28:05;101854.11;;;8.63;40.60
75551;BME280;65071;53.082;18.218;2023-04-06T12:30:31;101859.80;;;8.70;40.51
75551;BME280;65071;53.082;18.218;2023-04-06T12:32:57;101856.47;;;8.72;40.21
75551;BME280;65071;53.082;18.218;2023-04-06T12:35:23;101852.77;;;8.71;40.11
75551;BME280;65071;53.082;18.218;2023-04-06T12:37:49;101852.84;;;8.73;40.00
75551;BME280;65071;53.082;18.218;2023-04-06T12:40:16;101847.55;;;8.69;39.85
75551;BME280;65071;53.082;18.218;2023-04-06T12:42:41;101851.02;;;8.71;40.42
75551;BME280;65071;53.082;18.218;2023-04-06T12:45:08;101855.48;;;8.76;39.69
75551;BME280;65071;53.082;18.218;2023-04-06T12:47:34;101846.04;;;8.84;39.59
75551;BME280;65071;53.082;18.218;2023-04-06T12:50:02;101843.39;;;8.96;39.98
75551;BME280;65071;53.082;18.218;2023-04-06T12:52:28;101841.25;;;9.05;40.00
75551;BME280;65071;53.082;18.218;2023-04-06T12:54:57;101841.88;;;9.17;39.54
75551;BME280;65071;53.082;18.218;2023-04-06T12:57:24;101838.74;;;9.32;39.41
75551;BME280;65071;53.082;18.218;2023-04-06T12:59:51;101835.92;;;9.40;39.93
75551;BME280;65071;53.082;18.218;2023-04-06T13:02:18;101826.88;;;9.35;38.95